createdAt,value
2018-11-06T00:53:46.422Z,99.90
2018-11-06T00:56:14.804Z,99.90
2018-11-06T00:58:43.460Z,99.90
2018-11-06T01:01:11.848Z,99.90
2018-11-06T01:03:45.770Z,99.90
2018-11-06T01:06:14.162Z,99.90
2018-11-06T01:08:42.751Z,99.90
2018-11-06T01:11:11.427Z,99.90
2018-11-06T01:13:39.829Z,99.90
2018-11-06T01:16:08.201Z,99.90
2018-11-06T01:18:36.580Z,99.90
2018-11-06T01:21:05.596Z,99.90
2018-11-06T01:23:33.968Z,99.90
2018-11-06T01:26:02.675Z,99.90
2018-11-06T01:28:31.069Z,99.90
2018-11-06T01:30:59.453Z,99.90
2018-11-06T01:33:28.022Z,99.90
2018-11-06T01:35:56.528Z,99.90
2018-11-06T01:38:24.905Z,99.90
2018-11-06T01:40:53.539Z,99.90
2018-11-06T01:43:22.212Z,99.90
2018-11-06T01:45:50.924Z,99.90
2018-11-06T01:48:19.772Z,99.90
2018-11-06T01:50:48.140Z,99.90
2018-11-06T01:53:16.988Z,99.90
2018-11-06T01:55:45.649Z,99.90
2018-11-06T01:58:14.400Z,99.90
2018-11-06T02:00:43.027Z,99.90
2018-11-06T02:03:11.734Z,99.90
2018-11-06T02:05:40.110Z,99.90
2018-11-06T02:08:08.570Z,99.90
2018-11-06T02:10:37.120Z,99.90
2018-11-06T02:13:06.197Z,99.90
2018-11-06T02:15:34.553Z,99.90
2018-11-06T02:18:02.931Z,99.90
2018-11-06T02:20:31.378Z,99.90
2018-11-06T02:23:00.027Z,99.90
2018-11-06T02:25:28.662Z,99.90
2018-11-06T02:27:57.389Z,99.90
2018-11-06T02:30:25.795Z,99.90
2018-11-06T02:32:54.192Z,99.90
2018-11-06T02:35:22.753Z,99.90
2018-11-06T02:37:51.136Z,99.90
2018-11-06T02:40:19.526Z,99.90
2018-11-06T02:42:48.229Z,99.90
2018-11-06T02:45:17.291Z,99.90
2018-11-06T02:47:45.697Z,99.90
2018-11-06T02:50:14.812Z,99.90
2018-11-06T02:52:44.436Z,99.90
2018-11-06T02:55:13.201Z,99.90
2018-11-06T02:57:42.468Z,99.90
2018-11-06T03:00:14.484Z,99.90
2018-11-06T03:02:44.045Z,99.90
2018-11-06T03:05:12.464Z,99.90
2018-11-06T03:07:41.593Z,99.90
2018-11-06T03:10:11.497Z,99.90
2018-11-06T03:12:41.360Z,99.90
2018-11-06T03:15:11.572Z,99.90
2018-11-06T03:17:39.972Z,99.90
2018-11-06T03:20:09.653Z,99.90
2018-11-06T03:22:38.281Z,99.90
2018-11-06T03:25:07.607Z,99.90
2018-11-06T03:27:36.287Z,99.90
2018-11-06T03:30:06.118Z,99.90
2018-11-06T03:32:34.549Z,99.90
2018-11-06T03:35:03.223Z,99.90
2018-11-06T03:37:32.139Z,99.90
2018-11-06T03:40:00.638Z,99.90
2018-11-06T03:42:29.000Z,99.90
2018-11-06T03:44:57.659Z,99.90
2018-11-06T03:47:26.035Z,99.90
2018-11-06T03:49:54.386Z,99.90
2018-11-06T03:52:23.034Z,99.90
2018-11-06T03:54:51.419Z,99.90
2018-11-06T03:57:19.804Z,99.90
2018-11-06T03:59:48.847Z,99.90
2018-11-06T04:02:17.227Z,99.90
2018-11-06T04:04:45.639Z,99.90
2018-11-06T04:07:14.209Z,99.90
2018-11-06T04:09:43.273Z,99.90
2018-11-06T04:12:12.246Z,99.90
2018-11-06T04:14:41.255Z,99.90
2018-11-06T04:17:09.956Z,99.90
2018-11-06T04:19:38.327Z,99.90
2018-11-06T04:22:07.035Z,99.90
2018-11-06T04:24:35.451Z,99.90
2018-11-06T04:27:04.383Z,99.90
2018-11-06T04:29:33.128Z,99.90
2018-11-06T04:32:01.511Z,99.90
2018-11-06T04:34:30.183Z,99.90
2018-11-06T04:36:58.885Z,99.90
2018-11-06T04:39:27.598Z,99.90
2018-11-06T04:41:55.991Z,99.90
2018-11-06T04:44:25.026Z,99.90
2018-11-06T04:46:54.567Z,99.90
2018-11-06T04:49:23.180Z,99.90
2018-11-06T04:51:51.568Z,99.90
2018-11-06T04:54:20.512Z,99.90
2018-11-06T04:56:48.919Z,99.90
2018-11-06T04:59:17.901Z,99.90
2018-11-06T05:01:46.689Z,99.90
2018-11-06T05:04:15.102Z,99.90
2018-11-06T05:06:43.531Z,99.90
2018-11-06T05:09:11.922Z,99.90
2018-11-06T05:11:40.425Z,99.90
2018-11-06T05:14:09.079Z,99.90
2018-11-06T05:16:37.473Z,99.90
2018-11-06T05:19:05.878Z,99.90
2018-11-06T05:21:34.256Z,99.90
2018-11-06T05:24:02.605Z,99.90
2018-11-06T05:26:30.999Z,99.90
2018-11-06T05:28:59.668Z,99.90
2018-11-06T05:31:28.111Z,99.90
2018-11-06T05:33:56.493Z,99.90
2018-11-06T05:36:24.882Z,99.90
2018-11-06T05:38:53.331Z,99.90
2018-11-06T05:41:21.864Z,99.90
2018-11-06T05:43:50.587Z,99.90
2018-11-06T05:46:19.007Z,99.90
2018-11-06T05:48:47.382Z,99.90
2018-11-06T05:51:15.984Z,99.90
2018-11-06T05:53:44.739Z,99.90
2018-11-06T05:56:13.381Z,99.90
2018-11-06T05:58:42.066Z,99.90
2018-11-06T06:01:10.776Z,99.90
2018-11-06T06:03:39.188Z,99.90
2018-11-06T06:06:07.576Z,99.90
2018-11-06T06:08:36.286Z,99.90
2018-11-06T06:11:04.743Z,99.90
2018-11-06T06:13:33.121Z,99.90
2018-11-06T06:16:01.549Z,99.90
2018-11-06T06:18:30.317Z,99.90
2018-11-06T06:20:59.039Z,99.90
2018-11-06T06:23:27.473Z,99.90
2018-11-06T06:25:56.162Z,99.90
2018-11-06T06:28:25.109Z,99.90
2018-11-06T06:30:53.488Z,99.90
2018-11-06T06:33:22.149Z,99.90
2018-11-06T06:35:50.556Z,99.90
2018-11-06T06:38:19.189Z,99.90
2018-11-06T06:40:47.945Z,99.90
2018-11-06T06:43:16.555Z,99.90
2018-11-06T06:45:45.229Z,99.90
2018-11-06T06:48:13.661Z,99.90
2018-11-06T06:50:42.359Z,99.90
2018-11-06T06:53:10.774Z,99.90
2018-11-06T06:55:39.179Z,99.90
2018-11-06T06:58:07.760Z,99.90
2018-11-06T07:00:36.388Z,99.90
2018-11-06T07:03:05.461Z,99.90
2018-11-06T07:05:34.168Z,99.90
2018-11-06T07:08:02.584Z,99.90
2018-11-06T07:10:31.360Z,99.90
2018-11-06T07:13:00.315Z,99.90
2018-11-06T07:15:28.604Z,99.90
2018-11-06T07:17:57.053Z,99.90
2018-11-06T07:20:26.552Z,99.90
2018-11-06T07:22:55.213Z,99.90
2018-11-06T07:25:23.603Z,99.90
2018-11-06T07:27:52.062Z,99.90
2018-11-06T07:30:22.153Z,99.90
2018-11-06T07:32:50.581Z,99.90
2018-11-06T07:35:19.826Z,99.90
2018-11-06T07:37:48.228Z,99.90
2018-11-06T07:40:18.064Z,99.90
2018-11-06T07:42:46.489Z,99.90
2018-11-06T07:45:16.583Z,99.90
2018-11-06T07:47:45.006Z,99.90
2018-11-06T07:50:14.826Z,99.90
2018-11-06T07:52:44.167Z,99.90
2018-11-06T07:55:15.324Z,99.90
2018-11-06T07:57:43.912Z,99.90
2018-11-06T08:00:20.494Z,99.90
2018-11-06T08:02:49.864Z,99.90
2018-11-06T08:05:18.670Z,99.90
2018-11-06T08:07:48.415Z,99.90
2018-11-06T08:10:16.859Z,99.90
2018-11-06T08:12:47.675Z,99.90
2018-11-06T08:15:16.251Z,99.90
2018-11-06T08:17:45.598Z,99.90
2018-11-06T08:20:14.365Z,99.90
2018-11-06T08:22:43.024Z,99.90
2018-11-06T08:25:12.962Z,99.90
2018-11-06T08:27:42.287Z,99.90
2018-11-06T08:30:11.601Z,99.90
2018-11-06T08:32:40.577Z,99.90
2018-11-06T08:35:12.913Z,99.90
2018-11-06T08:37:42.223Z,99.90
2018-11-06T08:40:12.232Z,99.90
2018-11-06T08:42:40.658Z,99.90
2018-11-06T08:45:11.005Z,99.90
2018-11-06T08:47:40.635Z,99.90
2018-11-06T08:50:10.826Z,99.90
2018-11-06T08:52:39.298Z,99.90
2018-11-06T08:55:09.454Z,99.90
2018-11-06T08:57:38.361Z,99.90
2018-11-06T09:00:09.060Z,99.90
2018-11-06T09:02:38.089Z,99.90
2018-11-06T09:05:08.450Z,98.80
2018-11-06T09:07:37.801Z,97.70
2018-11-06T09:10:07.571Z,97.80
2018-11-06T09:12:36.101Z,98.10
2018-11-06T09:15:05.077Z,98.80
2018-11-06T09:17:33.523Z,99.80
2018-11-06T09:20:02.235Z,99.90
2018-11-06T09:22:30.670Z,99.60
2018-11-06T09:24:59.364Z,99.90
2018-11-06T09:27:28.260Z,99.90
2018-11-06T09:29:56.902Z,99.60
2018-11-06T09:32:25.360Z,97.20
2018-11-06T09:34:53.785Z,94.20
2018-11-06T09:37:22.326Z,92.30
2018-11-06T09:39:51.340Z,89.50
2018-11-06T09:42:20.013Z,85.60
2018-11-06T09:44:48.424Z,83.00
2018-11-06T09:47:17.021Z,80.10
2018-11-06T09:49:45.429Z,80.20
2018-11-06T09:52:13.865Z,79.80
2018-11-06T09:54:42.335Z,80.70
2018-11-06T09:57:10.736Z,81.80
2018-11-06T09:59:39.158Z,78.20
2018-11-06T10:02:07.706Z,74.00
2018-11-06T10:04:36.129Z,75.70
2018-11-06T10:07:04.820Z,74.30
2018-11-06T10:09:32.968Z,73.90
2018-11-06T10:12:03.009Z,76.80
2018-11-06T10:14:31.407Z,79.20
2018-11-06T10:16:59.780Z,83.80
2018-11-06T10:19:28.195Z,85.80
2018-11-06T10:21:56.776Z,89.10
2018-11-06T10:24:25.194Z,88.50
2018-11-06T10:26:53.962Z,89.30
2018-11-06T10:29:22.566Z,88.60
2018-11-06T10:31:51.563Z,90.40
2018-11-06T10:34:20.526Z,91.40
2018-11-06T10:36:48.926Z,92.00
2018-11-06T10:39:17.989Z,91.50
2018-11-06T10:41:46.399Z,91.60
2018-11-06T10:44:14.989Z,91.70
2018-11-06T10:46:43.393Z,92.70
2018-11-06T10:49:11.786Z,93.00
2018-11-06T10:51:40.496Z,92.50
2018-11-06T10:54:09.042Z,93.50
2018-11-06T10:56:37.771Z,94.20
2018-11-06T10:59:06.612Z,95.30
2018-11-06T11:01:40.256Z,95.90
2018-11-06T11:04:14.164Z,96.70
2018-11-06T11:06:43.009Z,96.80
2018-11-06T11:09:12.273Z,97.30
2018-11-06T11:11:40.997Z,95.70
2018-11-06T11:14:09.410Z,97.30
2018-11-06T11:16:38.087Z,98.90
2018-11-06T11:19:06.728Z,98.90
2018-11-06T11:21:35.132Z,99.90
2018-11-06T11:24:03.544Z,99.90
2018-11-06T11:26:31.941Z,99.90
2018-11-06T11:29:00.832Z,99.90
2018-11-06T11:31:29.586Z,99.90
2018-11-06T11:33:58.593Z,99.90
2018-11-06T11:36:27.235Z,99.90
2018-11-06T11:38:55.612Z,99.90
2018-11-06T11:41:24.578Z,99.90
2018-11-06T11:43:53.274Z,99.90
2018-11-06T11:46:21.669Z,99.90
2018-11-06T11:48:50.975Z,99.90
2018-11-06T11:51:20.167Z,99.90
2018-11-06T11:53:48.940Z,99.90
2018-11-06T11:56:17.337Z,99.90
2018-11-06T11:58:46.275Z,99.90
2018-11-06T12:01:15.005Z,99.90
2018-11-06T12:03:43.978Z,99.90
2018-11-06T12:06:12.708Z,99.90
2018-11-06T12:08:41.725Z,99.90
2018-11-06T12:11:10.375Z,99.90
2018-11-06T12:13:38.801Z,99.90
2018-11-06T12:16:07.348Z,99.90
2018-11-06T12:18:36.005Z,99.90
2018-11-06T12:21:04.786Z,99.90
2018-11-06T12:23:33.189Z,99.90
2018-11-06T12:26:01.914Z,99.90
2018-11-06T12:28:30.326Z,99.90
2018-11-06T12:30:58.682Z,99.90
2018-11-06T12:33:27.093Z,99.90
2018-11-06T12:35:55.489Z,99.90
2018-11-06T12:38:24.056Z,99.90
2018-11-06T12:40:53.026Z,99.90
2018-11-06T12:43:21.759Z,99.90
2018-11-06T12:45:50.171Z,99.90
2018-11-06T12:48:18.584Z,99.90
2018-11-06T12:50:47.194Z,99.90
2018-11-06T12:53:15.614Z,99.90
2018-11-06T12:55:44.063Z,99.90
2018-11-06T12:58:12.580Z,99.90
2018-11-06T13:00:41.289Z,99.90
2018-11-06T13:03:09.705Z,99.90
2018-11-06T13:05:38.634Z,99.90
2018-11-06T13:08:07.084Z,99.90
2018-11-06T13:10:36.038Z,99.90
2018-11-06T13:13:04.728Z,99.90
2018-11-06T13:15:33.496Z,99.90
2018-11-06T13:18:01.824Z,99.90
2018-11-06T13:20:30.772Z,99.90
2018-11-06T13:22:59.206Z,99.90
2018-11-06T13:25:27.682Z,99.90
2018-11-06T13:27:56.234Z,99.90
2018-11-06T13:30:24.652Z,99.90
2018-11-06T13:32:53.071Z,99.90
2018-11-06T13:35:21.553Z,99.90
2018-11-06T13:37:50.426Z,99.90
2018-11-06T13:40:19.062Z,99.90
2018-11-06T13:42:48.281Z,99.90
2018-11-06T13:45:18.458Z,99.90
2018-11-06T13:47:46.986Z,99.90
2018-11-06T13:50:15.413Z,99.90
2018-11-06T13:52:43.823Z,99.90
2018-11-06T13:55:14.044Z,99.90
2018-11-06T13:57:43.437Z,99.90
2018-11-06T14:00:15.918Z,99.90
2018-11-06T14:02:44.893Z,99.90
2018-11-06T14:05:13.997Z,99.90
2018-11-06T14:07:42.567Z,99.90
2018-11-06T14:10:11.307Z,99.90
2018-11-06T14:12:40.136Z,99.90
2018-11-06T14:15:08.896Z,99.90
2018-11-06T14:17:37.983Z,99.90
2018-11-06T14:20:08.468Z,99.90
2018-11-06T14:22:37.130Z,99.90
2018-11-06T14:25:07.117Z,99.90
2018-11-06T14:27:35.548Z,99.90
2018-11-06T14:30:05.069Z,99.90
2018-11-06T14:32:33.756Z,99.90
2018-11-06T14:35:02.202Z,99.90
2018-11-06T14:37:31.000Z,99.90
2018-11-06T14:39:59.406Z,99.90
2018-11-06T14:42:28.478Z,99.90
2018-11-06T14:44:56.870Z,99.90
2018-11-06T14:47:25.317Z,99.90
2018-11-06T14:49:53.899Z,99.90
2018-11-06T14:52:22.290Z,99.90
2018-11-06T14:54:50.743Z,99.90
2018-11-06T14:57:19.156Z,99.90
2018-11-06T14:59:48.083Z,99.90
2018-11-06T15:02:16.648Z,99.90
2018-11-06T15:04:45.082Z,99.90
2018-11-06T15:07:13.457Z,99.90
2018-11-06T15:09:41.872Z,99.90
2018-11-06T15:12:10.297Z,99.90
2018-11-06T15:14:38.943Z,99.90
2018-11-06T15:17:07.644Z,99.90
2018-11-06T15:19:36.432Z,99.90
2018-11-06T15:22:05.853Z,99.90
2018-11-06T15:24:34.859Z,99.90
2018-11-06T15:27:03.277Z,99.90
2018-11-06T15:29:32.022Z,99.90
2018-11-06T15:32:00.893Z,99.90
2018-11-06T15:34:29.626Z,99.90
2018-11-06T15:36:59.331Z,99.90
2018-11-06T15:39:27.782Z,99.90
2018-11-06T15:41:56.557Z,99.90
2018-11-06T15:44:24.931Z,99.90
2018-11-06T15:46:53.730Z,99.90
2018-11-06T15:49:22.161Z,99.90
2018-11-06T15:51:50.801Z,99.90
2018-11-06T15:54:19.198Z,99.90
2018-11-06T15:56:47.653Z,99.90
2018-11-06T15:59:16.244Z,99.90
2018-11-06T16:01:44.723Z,99.90
2018-11-06T16:04:13.661Z,99.90
2018-11-06T16:06:42.071Z,99.90
2018-11-06T16:09:11.464Z,99.90
2018-11-06T16:11:40.361Z,99.90
2018-11-06T16:14:08.998Z,99.90
2018-11-06T16:16:37.462Z,99.90
2018-11-06T16:19:05.882Z,99.90
2018-11-06T16:21:34.310Z,99.90
2018-11-06T16:24:03.378Z,99.90
2018-11-06T16:26:31.983Z,99.90
2018-11-06T16:29:00.429Z,99.90
2018-11-06T16:31:28.843Z,99.90
2018-11-06T16:33:57.305Z,99.90
2018-11-06T16:36:26.170Z,99.90
2018-11-06T16:38:55.051Z,99.90
2018-11-06T16:41:23.638Z,99.90
2018-11-06T16:43:52.087Z,99.90
2018-11-06T16:46:20.488Z,99.90
2018-11-06T16:48:49.597Z,99.90
2018-11-06T16:51:18.347Z,99.90
2018-11-06T16:53:46.981Z,99.90
2018-11-06T16:56:15.618Z,99.90
2018-11-06T16:58:44.593Z,99.90
2018-11-06T17:01:13.236Z,99.90
2018-11-06T17:03:41.752Z,99.90
2018-11-06T17:06:15.060Z,99.90
2018-11-06T17:08:44.023Z,99.90
2018-11-06T17:11:12.444Z,99.90
2018-11-06T17:13:40.851Z,99.90
2018-11-06T17:16:09.493Z,99.90
2018-11-06T17:18:37.962Z,99.90
2018-11-06T17:21:07.037Z,99.90
2018-11-06T17:23:35.476Z,99.90
2018-11-06T17:26:03.895Z,99.90
2018-11-06T17:28:33.438Z,99.90
2018-11-06T17:31:02.509Z,99.90
2018-11-06T17:33:30.967Z,99.90
2018-11-06T17:35:59.557Z,99.90
2018-11-06T17:38:28.528Z,99.90
2018-11-06T17:40:57.281Z,99.90
2018-11-06T17:43:25.783Z,99.90
2018-11-06T17:45:54.288Z,99.90
2018-11-06T17:48:22.995Z,99.90
2018-11-06T17:50:51.639Z,99.90
2018-11-06T17:53:20.388Z,99.90
2018-11-06T17:55:48.815Z,99.90
2018-11-06T17:58:17.470Z,99.90
2018-11-06T18:00:45.939Z,99.90
2018-11-06T18:03:15.112Z,99.90
2018-11-06T18:05:44.057Z,99.90
2018-11-06T18:08:12.773Z,99.90
2018-11-06T18:10:41.526Z,99.90
2018-11-06T18:13:10.156Z,99.90
2018-11-06T18:15:38.876Z,99.90
2018-11-06T18:18:07.515Z,99.90
2018-11-06T18:20:36.346Z,99.90
2018-11-06T18:23:05.464Z,99.90
2018-11-06T18:25:34.483Z,99.90
2018-11-06T18:28:03.177Z,99.90
2018-11-06T18:30:31.598Z,99.90
2018-11-06T18:33:00.506Z,99.90
2018-11-06T18:35:28.905Z,99.90
2018-11-06T18:37:57.575Z,99.90
2018-11-06T18:40:26.297Z,99.90
2018-11-06T18:42:54.760Z,99.90
2018-11-06T18:45:23.228Z,99.90
2018-11-06T18:47:51.653Z,99.90
2018-11-06T18:50:20.721Z,99.90
2018-11-06T18:52:50.705Z,99.90
2018-11-06T18:55:19.678Z,99.90
2018-11-06T18:57:48.359Z,99.90
2018-11-06T19:00:19.457Z,99.90
2018-11-06T19:02:49.342Z,99.90
2018-11-06T19:05:18.715Z,99.90
2018-11-06T19:07:47.605Z,99.90
2018-11-06T19:10:16.580Z,99.90
2018-11-06T19:12:45.596Z,99.90
2018-11-06T19:15:17.416Z,99.90
2018-11-06T19:17:46.956Z,99.90
2018-11-06T19:20:16.325Z,99.90
2018-11-06T19:22:45.585Z,99.90
2018-11-06T19:25:15.166Z,99.90
2018-11-06T19:27:44.113Z,99.90
2018-11-06T19:30:14.832Z,99.90
2018-11-06T19:32:43.243Z,99.90
2018-11-06T19:35:11.880Z,99.90
2018-11-06T19:37:41.110Z,99.90
2018-11-06T19:40:11.340Z,99.90
2018-11-06T19:42:41.209Z,99.90
2018-11-06T19:45:11.741Z,99.90
2018-11-06T19:47:40.157Z,99.90
2018-11-06T19:50:10.927Z,99.90
2018-11-06T19:52:40.009Z,99.90
2018-11-06T19:55:10.621Z,99.90
2018-11-06T19:57:39.490Z,99.90
2018-11-06T20:00:15.672Z,99.90
2018-11-06T20:02:46.361Z,99.90
2018-11-06T20:05:15.157Z,99.90
2018-11-06T20:07:44.995Z,99.90
2018-11-06T20:10:15.526Z,99.90
2018-11-06T20:12:45.076Z,99.90
2018-11-06T20:15:14.933Z,99.90
2018-11-06T20:17:45.083Z,99.90
2018-11-06T20:20:16.318Z,99.90
2018-11-06T20:22:45.421Z,99.90
2018-11-06T20:25:14.322Z,99.90
2018-11-06T20:27:43.653Z,99.90
2018-11-06T20:30:15.774Z,99.90
2018-11-06T20:32:44.216Z,99.90
2018-11-06T20:35:13.273Z,99.90
2018-11-06T20:37:42.359Z,99.90
2018-11-06T20:40:15.236Z,99.90
2018-11-06T20:42:44.818Z,99.90
2018-11-06T20:45:14.874Z,99.90
2018-11-06T20:47:44.153Z,99.90
2018-11-06T20:50:15.697Z,99.90
2018-11-06T20:52:44.779Z,99.90
2018-11-06T20:55:15.015Z,99.90
2018-11-06T20:57:43.388Z,99.90
2018-11-06T21:00:21.496Z,99.90
2018-11-06T21:02:50.691Z,99.90
2018-11-06T21:05:19.365Z,99.90
2018-11-06T21:07:48.693Z,99.90
2018-11-06T21:10:19.019Z,99.90
2018-11-06T21:12:47.729Z,99.90
2018-11-06T21:15:17.032Z,99.90
2018-11-06T21:17:45.886Z,99.90
2018-11-06T21:20:15.124Z,99.90
2018-11-06T21:22:44.285Z,99.90
2018-11-06T21:25:12.966Z,99.90
2018-11-06T21:27:42.679Z,99.90
2018-11-06T21:30:14.005Z,99.90
2018-11-06T21:32:44.094Z,99.90
2018-11-06T21:35:12.929Z,99.90
2018-11-06T21:37:41.601Z,99.90
2018-11-06T21:40:12.914Z,99.90
2018-11-06T21:42:42.059Z,99.90
2018-11-06T21:45:12.023Z,99.90
2018-11-06T21:47:42.199Z,99.90
